KCFD/CFD METAR and TAF weather

Enter ICAO airport designator
Station Type Date Time Source
KCFD METAR 2022/06/27 18:15 UTC NOAA

KCFD 271815Z AUTO 32008KT 10SM SCT100 35/23 A3011 RMK AO2 T03470225


Station Type Date Time Source
KCFD Decoded METAR 2022/06/27 18:15 UTC NOAA

Station name not available
Jun 27, 2022 - 02:15 PM EDT / 2022.06.27 1815 UTC
Wind: from the NW (320 degrees) at 9 MPH (8 KT):0
Visibility: 10 mile(s):0
Sky conditions: partly cloudy
Temperature: 94.5 F (34.7 C)
Heat index: 103.5 F (39.7 C):1
Dew Point: 72.5 F (22.5 C)
Relative Humidity: 49%
Pressure (altimeter): 30.11 in. Hg (1019 hPa)
ob: KCFD 271815Z AUTO 32008KT 10SM SCT100 35/23 A3011 RMK AO2 T03470225
cycle: 18

Station Type Date Time Source
KCFD TAF UTC NOAA

Error!

Example: see airport list